createdAt,value
2022-11-30T00:01:13.242Z,46.17
2022-11-30T00:03:41.943Z,44.97
2022-11-30T00:06:12.317Z,44.03
2022-11-30T00:08:40.785Z,49.10
2022-11-30T00:11:10.760Z,47.97
2022-11-30T00:13:40.592Z,51.63
2022-11-30T00:16:09.686Z,45.00
2022-11-30T00:18:38.865Z,40.87
2022-11-30T00:21:09.635Z,38.50
2022-11-30T00:23:40.366Z,39.37
2022-11-30T00:26:11.005Z,44.50
2022-11-30T00:28:41.845Z,40.67
2022-11-30T00:31:12.834Z,36.67
2022-11-30T00:33:41.432Z,36.10
2022-11-30T00:36:13.328Z,40.43
2022-11-30T00:38:41.842Z,38.47
2022-11-30T00:41:10.950Z,36.97
2022-11-30T00:43:43.255Z,37.93
2022-11-30T00:46:11.994Z,35.40
2022-11-30T00:48:40.996Z,37.73
2022-11-30T00:51:11.830Z,36.93
2022-11-30T00:53:40.434Z,36.57
2022-11-30T00:56:09.728Z,35.70
2022-11-30T00:58:38.194Z,40.07
2022-11-30T01:01:08.513Z,39.03
2022-11-30T01:03:37.924Z,35.90
2022-11-30T01:06:07.194Z,38.50
2022-11-30T01:08:38.556Z,34.33
2022-11-30T01:11:09.618Z,38.83
2022-11-30T01:13:38.160Z,36.80
2022-11-30T01:16:13.341Z,34.73
2022-11-30T01:18:41.776Z,36.43
2022-11-30T01:21:13.560Z,35.20
2022-11-30T01:23:45.310Z,37.40
2022-11-30T01:26:14.142Z,37.30
2022-11-30T01:28:44.036Z,36.90
2022-11-30T01:31:15.713Z,35.10
2022-11-30T01:33:44.223Z,39.63
2022-11-30T01:36:14.384Z,39.27
2022-11-30T01:38:45.434Z,34.37
2022-11-30T01:41:16.017Z,34.20
2022-11-30T01:43:47.263Z,36.37
2022-11-30T01:46:29.979Z,32.47
2022-11-30T01:49:11.726Z,36.90
2022-11-30T01:51:47.232Z,36.47
2022-11-30T01:54:17.937Z,30.70
2022-11-30T01:56:50.000Z,37.03
2022-11-30T01:59:21.057Z,34.07
2022-11-30T02:01:51.160Z,33.30
2022-11-30T02:04:23.418Z,35.27
2022-11-30T02:06:51.679Z,34.43
2022-11-30T02:09:22.550Z,33.23
2022-11-30T02:11:52.099Z,36.70
2022-11-30T02:14:31.083Z,34.97
2022-11-30T02:17:09.448Z,38.37
2022-11-30T02:20:15.545Z,34.10
2022-11-30T02:22:57.119Z,34.13
2022-11-30T02:25:35.550Z,38.20
2022-11-30T02:28:23.482Z,39.60
2022-11-30T02:30:54.754Z,37.50
2022-11-30T02:33:26.923Z,39.23
2022-11-30T02:35:56.685Z,37.93
2022-11-30T02:38:27.579Z,38.97
2022-11-30T02:40:55.824Z,44.17
2022-11-30T02:43:26.451Z,39.07
2022-11-30T02:46:07.411Z,46.27
2022-11-30T02:48:43.697Z,48.17
2022-11-30T02:51:15.841Z,42.77
2022-11-30T02:53:44.233Z,38.83
2022-11-30T02:56:12.410Z,48.27
2022-11-30T02:58:41.526Z,48.00
2022-11-30T03:01:11.462Z,41.97
2022-11-30T03:03:39.690Z,44.30
2022-11-30T03:06:08.399Z,48.53
2022-11-30T03:08:36.609Z,46.60
2022-11-30T03:11:05.091Z,48.17
2022-11-30T03:13:35.630Z,45.80
2022-11-30T03:16:08.191Z,51.13
2022-11-30T03:18:38.702Z,42.20
2022-11-30T03:21:07.626Z,45.63
2022-11-30T03:23:36.631Z,45.47
2022-11-30T03:26:06.472Z,48.00
2022-11-30T03:28:34.730Z,42.93
2022-11-30T03:31:03.069Z,42.03
2022-11-30T03:33:31.740Z,40.80
2022-11-30T03:36:02.443Z,47.03
2022-11-30T03:38:30.659Z,39.13
2022-11-30T03:41:03.762Z,46.17
2022-11-30T03:43:31.966Z,45.53
2022-11-30T03:46:00.503Z,46.30
2022-11-30T03:48:29.265Z,46.73
2022-11-30T03:50:57.534Z,51.73
2022-11-30T03:53:27.126Z,44.37
2022-11-30T03:55:56.765Z,44.73
2022-11-30T03:58:25.926Z,40.07
2022-11-30T04:01:01.483Z,47.43
2022-11-30T04:03:30.467Z,41.17
2022-11-30T04:05:59.623Z,47.97
2022-11-30T04:08:30.388Z,43.57
2022-11-30T04:11:00.374Z,40.77
2022-11-30T04:13:29.889Z,46.63
2022-11-30T04:15:58.374Z,48.10
2022-11-30T04:18:28.415Z,49.23
2022-11-30T04:20:58.986Z,48.63
2022-11-30T04:23:31.552Z,45.27
2022-11-30T04:26:00.678Z,45.47
2022-11-30T04:28:28.988Z,50.50
2022-11-30T04:30:57.555Z,50.00
2022-11-30T04:33:25.857Z,47.37
2022-11-30T04:35:59.048Z,57.80
2022-11-30T04:38:29.621Z,59.73
2022-11-30T04:40:58.057Z,51.90
2022-11-30T04:43:27.228Z,61.80
2022-11-30T04:45:55.620Z,57.17
2022-11-30T04:48:23.806Z,55.93
2022-11-30T04:50:52.393Z,53.83
2022-11-30T04:53:23.406Z,58.87
2022-11-30T04:55:53.084Z,57.60
2022-11-30T04:58:21.734Z,58.37
2022-11-30T05:00:49.959Z,55.57
2022-11-30T05:03:20.310Z,52.93
2022-11-30T05:05:48.919Z,55.13
2022-11-30T05:08:17.115Z,54.00
2022-11-30T05:10:51.592Z,56.17
2022-11-30T05:13:24.167Z,53.90
2022-11-30T05:15:53.912Z,53.30
2022-11-30T05:18:22.939Z,54.40
2022-11-30T05:20:52.244Z,53.30
2022-11-30T05:23:21.363Z,58.80
2022-11-30T05:25:49.827Z,54.63
2022-11-30T05:28:18.225Z,52.97
2022-11-30T05:30:48.239Z,52.13
2022-11-30T05:33:16.623Z,54.20
2022-11-30T05:35:45.030Z,59.00
2022-11-30T05:38:13.214Z,63.47
2022-11-30T05:40:41.466Z,61.30
2022-11-30T05:43:10.238Z,56.93
2022-11-30T05:45:38.433Z,57.27
2022-11-30T05:48:08.406Z,58.40
2022-11-30T05:50:36.625Z,55.63
2022-11-30T05:53:04.836Z,74.00
2022-11-30T05:55:33.327Z,68.17
2022-11-30T05:58:02.735Z,61.63
2022-11-30T06:00:30.984Z,69.53
2022-11-30T06:02:59.609Z,90.23
2022-11-30T06:05:29.597Z,58.97
2022-11-30T06:08:01.555Z,79.17
2022-11-30T06:10:29.776Z,77.37
2022-11-30T06:12:58.215Z,102.77
2022-11-30T06:15:26.774Z,104.53
2022-11-30T06:17:57.279Z,83.67
2022-11-30T06:20:25.634Z,91.87
2022-11-30T06:22:55.255Z,92.17
2022-11-30T06:25:23.399Z,128.83
2022-11-30T06:27:51.686Z,113.43
2022-11-30T06:30:20.659Z,134.77
2022-11-30T06:32:50.138Z,123.47
2022-11-30T06:35:19.531Z,99.23
2022-11-30T06:37:47.830Z,76.80
2022-11-30T06:40:17.749Z,125.40
2022-11-30T06:42:46.454Z,92.27
2022-11-30T06:45:14.639Z,138.47
2022-11-30T06:47:42.826Z,134.77
2022-11-30T06:50:11.228Z,131.07
2022-11-30T06:52:40.771Z,172.53
2022-11-30T06:55:09.701Z,113.60
2022-11-30T06:57:39.500Z,95.77
2022-11-30T07:00:09.588Z,105.50
2022-11-30T07:02:38.299Z,124.03
2022-11-30T07:05:07.397Z,185.90
2022-11-30T07:07:35.902Z,89.87
2022-11-30T07:10:04.164Z,145.33
2022-11-30T07:12:32.598Z,133.33
2022-11-30T07:15:02.287Z,99.50
2022-11-30T07:17:30.531Z,131.27
2022-11-30T07:19:58.828Z,141.90
2022-11-30T07:22:27.183Z,85.67
2022-11-30T07:25:12.975Z,87.40
2022-11-30T07:27:41.271Z,100.97
2022-11-30T07:30:12.173Z,97.93
2022-11-30T07:32:40.504Z,100.60
2022-11-30T07:35:09.436Z,89.03
2022-11-30T07:37:37.655Z,110.23
2022-11-30T07:40:07.080Z,82.57
2022-11-30T07:42:35.297Z,81.97
2022-11-30T07:45:03.467Z,108.63
2022-11-30T07:47:32.970Z,122.23
2022-11-30T07:50:01.366Z,115.83
2022-11-30T07:52:31.696Z,142.03
2022-11-30T07:55:00.013Z,72.43
2022-11-30T07:57:29.065Z,116.10
2022-11-30T07:59:57.149Z,110.83
2022-11-30T08:02:25.501Z,83.70
2022-11-30T08:04:58.356Z,160.73
2022-11-30T08:07:26.651Z,105.33
2022-11-30T08:09:54.934Z,158.50
2022-11-30T08:12:23.207Z,260.30
2022-11-30T08:15:18.948Z,149.07
2022-11-30T08:17:40.534Z,111.90
2022-11-30T08:20:13.163Z,212.93
2022-11-30T08:22:41.454Z,76.17
2022-11-30T08:25:10.512Z,109.30
2022-11-30T08:27:38.847Z,136.53
2022-11-30T08:30:08.315Z,116.27
2022-11-30T08:32:36.504Z,112.83
2022-11-30T08:35:05.048Z,105.80
2022-11-30T08:37:37.893Z,91.63
2022-11-30T08:40:07.409Z,81.20
2022-11-30T08:42:35.792Z,94.00
2022-11-30T08:45:04.776Z,82.30
2022-11-30T08:47:33.196Z,99.20
2022-11-30T08:50:01.802Z,114.20
2022-11-30T08:52:30.224Z,94.03
2022-11-30T08:54:59.770Z,83.73
2022-11-30T08:57:28.110Z,99.40
2022-11-30T08:59:56.259Z,84.97
2022-11-30T09:02:24.721Z,110.23
2022-11-30T09:04:53.629Z,95.13
2022-11-30T09:07:21.962Z,77.07
2022-11-30T09:09:50.243Z,84.47
2022-11-30T09:12:19.845Z,89.43
2022-11-30T09:14:55.878Z,97.43
2022-11-30T09:17:26.255Z,99.47
2022-11-30T09:19:54.795Z,97.23
2022-11-30T09:22:22.898Z,110.80
2022-11-30T09:24:51.222Z,90.10
2022-11-30T09:27:20.857Z,125.50
2022-11-30T09:29:48.955Z,111.57
2022-11-30T09:32:18.471Z,103.97
2022-11-30T09:34:46.974Z,83.77
2022-11-30T09:37:15.380Z,136.97
2022-11-30T09:39:43.961Z,108.77
2022-11-30T09:42:42.457Z,86.37
2022-11-30T09:45:17.856Z,93.27
2022-11-30T09:48:21.689Z,73.30
2022-11-30T09:50:51.916Z,88.97
2022-11-30T09:53:29.727Z,86.97
2022-11-30T09:56:00.240Z,84.03
2022-11-30T09:58:40.678Z,79.00
2022-11-30T10:01:18.536Z,79.63
2022-11-30T10:03:47.319Z,86.47
2022-11-30T10:06:23.830Z,78.93
2022-11-30T10:09:01.491Z,78.73
2022-11-30T10:11:45.962Z,72.40
2022-11-30T10:14:35.046Z,70.70
2022-11-30T10:17:11.077Z,72.93
2022-11-30T10:19:55.646Z,90.80
2022-11-30T10:22:30.586Z,107.10
2022-11-30T10:25:13.993Z,93.17
2022-11-30T10:27:51.135Z,71.13
2022-11-30T10:30:23.431Z,65.63
2022-11-30T10:32:54.235Z,72.03
2022-11-30T10:35:34.752Z,72.30
2022-11-30T10:38:11.980Z,82.63
2022-11-30T10:40:45.689Z,59.37
2022-11-30T10:43:20.239Z,74.37
2022-11-30T10:45:51.642Z,69.30
2022-11-30T10:48:25.573Z,82.93
2022-11-30T10:50:54.697Z,74.33
2022-11-30T10:53:23.502Z,76.03
2022-11-30T10:56:00.116Z,81.10
2022-11-30T10:58:32.686Z,60.20
2022-11-30T11:01:08.910Z,79.17
2022-11-30T11:03:37.824Z,85.40
2022-11-30T11:06:12.808Z,71.40
2022-11-30T11:08:45.419Z,63.97
2022-11-30T11:11:32.923Z,67.90
2022-11-30T11:14:17.885Z,63.80
2022-11-30T11:16:57.932Z,56.90
2022-11-30T11:19:34.820Z,56.00
2022-11-30T11:22:05.416Z,49.83
2022-11-30T11:24:35.031Z,51.10
2022-11-30T11:27:03.415Z,68.93
2022-11-30T11:29:34.271Z,78.53
2022-11-30T11:32:20.099Z,88.67
2022-11-30T11:34:51.290Z,115.67
2022-11-30T11:37:23.469Z,78.73
2022-11-30T11:40:01.013Z,72.23
2022-11-30T11:42:32.360Z,77.80
2022-11-30T11:45:02.843Z,61.67
2022-11-30T11:47:40.014Z,58.40
2022-11-30T11:51:05.137Z,61.00
2022-11-30T11:53:25.666Z,66.80
2022-11-30T11:55:59.056Z,58.67
2022-11-30T11:58:39.055Z,61.73
2022-11-30T12:01:38.583Z,57.57
2022-11-30T12:04:15.668Z,58.67
2022-11-30T12:06:46.488Z,64.03
2022-11-30T12:09:19.222Z,56.73
2022-11-30T12:11:49.772Z,52.53
2022-11-30T12:14:20.101Z,45.63
2022-11-30T12:17:13.777Z,51.70
2022-11-30T12:19:51.060Z,56.13
2022-11-30T12:22:39.037Z,53.20
2022-11-30T12:25:21.351Z,48.83
2022-11-30T12:27:58.527Z,52.67
2022-11-30T12:30:34.258Z,50.80
2022-11-30T12:33:13.112Z,53.00
2022-11-30T12:35:59.450Z,53.33
2022-11-30T12:38:46.087Z,52.27
2022-11-30T12:41:32.530Z,56.10
2022-11-30T12:44:30.574Z,60.50
2022-11-30T12:47:08.435Z,58.20
2022-11-30T12:49:54.402Z,49.67
2022-11-30T12:52:36.064Z,55.83
2022-11-30T12:55:15.562Z,54.60
2022-11-30T12:57:50.699Z,54.67
2022-11-30T13:00:22.049Z,54.73
2022-11-30T13:03:22.494Z,58.30
2022-11-30T13:05:57.259Z,54.90
2022-11-30T13:08:31.157Z,66.27
2022-11-30T13:11:04.046Z,93.27
2022-11-30T13:13:35.178Z,54.53
2022-11-30T13:16:09.809Z,56.33
2022-11-30T13:18:38.550Z,55.50
2022-11-30T13:21:15.809Z,57.80
2022-11-30T13:23:54.845Z,52.23
2022-11-30T13:26:30.085Z,50.97
2022-11-30T13:29:13.297Z,50.77
2022-11-30T13:31:49.025Z,43.57
2022-11-30T13:34:28.456Z,50.57
2022-11-30T13:37:06.217Z,52.33
2022-11-30T13:39:47.541Z,53.97
2022-11-30T13:42:34.470Z,58.53
2022-11-30T13:45:20.225Z,50.93
2022-11-30T13:47:51.208Z,49.83
2022-11-30T13:50:27.930Z,54.43
2022-11-30T13:53:21.494Z,53.40
2022-11-30T13:56:03.070Z,64.63
2022-11-30T13:58:31.923Z,57.33
2022-11-30T14:01:28.574Z,61.20
2022-11-30T14:04:31.710Z,57.43
2022-11-30T14:07:00.844Z,61.30
2022-11-30T14:10:00.121Z,55.77
2022-11-30T14:13:00.735Z,60.47
2022-11-30T14:15:51.887Z,54.10
2022-11-30T14:18:40.885Z,63.47
2022-11-30T14:21:23.108Z,55.53
2022-11-30T14:24:00.381Z,60.20
2022-11-30T14:26:37.692Z,56.77
2022-11-30T14:29:18.753Z,57.53
2022-11-30T14:31:58.072Z,59.33
2022-11-30T14:34:29.983Z,55.03
2022-11-30T14:37:02.248Z,53.90
2022-11-30T14:39:35.512Z,47.60
2022-11-30T14:42:05.310Z,47.77
2022-11-30T14:44:41.120Z,56.70
2022-11-30T14:47:17.543Z,55.67
2022-11-30T14:49:51.945Z,55.23
2022-11-30T14:52:38.204Z,56.37
2022-11-30T14:55:18.914Z,59.07
2022-11-30T14:57:54.015Z,61.60
2022-11-30T15:00:24.226Z,57.53
2022-11-30T15:02:52.595Z,50.23
2022-11-30T15:05:27.166Z,53.33
2022-11-30T15:07:55.629Z,56.47
2022-11-30T15:10:30.995Z,61.43
2022-11-30T15:13:00.801Z,58.97
2022-11-30T15:15:31.659Z,60.67
2022-11-30T15:18:11.232Z,54.67
2022-11-30T15:20:43.938Z,58.53
2022-11-30T15:23:14.623Z,60.13
2022-11-30T15:25:47.591Z,59.67
2022-11-30T15:28:21.366Z,56.87
2022-11-30T15:30:54.914Z,66.27
2022-11-30T15:33:25.224Z,61.27
2022-11-30T15:38:50.376Z,60.00
2022-11-30T15:41:21.727Z,59.43
2022-11-30T15:43:53.185Z,65.20
2022-11-30T15:46:32.854Z,64.20
2022-11-30T15:49:16.135Z,69.73
2022-11-30T15:51:47.456Z,62.73
2022-11-30T15:54:15.886Z,68.67
2022-11-30T15:56:57.774Z,66.33
2022-11-30T15:59:27.358Z,73.83
2022-11-30T16:02:08.707Z,65.67
2022-11-30T16:05:14.245Z,69.30
2022-11-30T16:07:50.830Z,69.30
2022-11-30T16:10:22.621Z,70.33
2022-11-30T16:12:52.443Z,65.70
2022-11-30T16:15:23.316Z,71.17
2022-11-30T16:17:54.622Z,75.43
2022-11-30T16:20:23.057Z,71.53
2022-11-30T16:22:51.193Z,74.73
2022-11-30T16:25:22.188Z,72.70
2022-11-30T16:27:50.933Z,67.00
2022-11-30T16:30:21.100Z,73.97
2022-11-30T16:32:49.774Z,70.83
2022-11-30T16:35:25.146Z,71.10
2022-11-30T16:37:53.802Z,69.33
2022-11-30T16:40:22.230Z,74.37
2022-11-30T16:42:51.886Z,66.97
2022-11-30T16:45:22.497Z,68.93
2022-11-30T16:47:51.585Z,73.67
2022-11-30T16:50:24.189Z,71.17
2022-11-30T16:52:52.768Z,75.33
2022-11-30T16:55:23.030Z,82.17
2022-11-30T16:57:52.117Z,81.73
2022-11-30T17:00:21.094Z,75.27
2022-11-30T17:03:20.663Z,83.33
2022-11-30T17:05:50.762Z,82.63
2022-11-30T17:08:18.984Z,87.70
2022-11-30T17:10:47.528Z,95.33
2022-11-30T17:13:18.020Z,85.80
2022-11-30T17:15:46.585Z,89.43
2022-11-30T17:18:15.326Z,101.87
2022-11-30T17:20:43.699Z,95.70
2022-11-30T17:23:13.195Z,103.93
2022-11-30T17:25:41.525Z,104.27
2022-11-30T17:28:09.861Z,112.37
2022-11-30T17:30:38.170Z,103.77
2022-11-30T17:33:06.584Z,106.70
2022-11-30T17:35:35.031Z,112.17
2022-11-30T17:38:03.170Z,104.57
2022-11-30T17:40:32.943Z,112.20
2022-11-30T17:43:01.176Z,110.10
2022-11-30T17:45:29.340Z,122.07
2022-11-30T17:47:57.635Z,104.33
2022-11-30T17:50:25.841Z,131.53
2022-11-30T17:52:54.059Z,121.20
2022-11-30T17:55:22.487Z,125.90
2022-11-30T17:57:52.274Z,133.77
2022-11-30T18:00:21.203Z,126.87
2022-11-30T18:02:51.954Z,139.80
2022-11-30T18:05:20.738Z,125.57
2022-11-30T18:07:49.067Z,134.40
2022-11-30T18:10:17.535Z,138.27
2022-11-30T18:12:45.812Z,131.53
2022-11-30T18:15:15.575Z,130.63
2022-11-30T18:17:43.814Z,139.73
2022-11-30T18:20:13.196Z,123.97
2022-11-30T18:22:41.511Z,130.80
2022-11-30T18:25:10.427Z,142.27
2022-11-30T18:27:38.590Z,146.67
2022-11-30T18:30:10.425Z,126.73
2022-11-30T18:32:40.213Z,136.50
2022-11-30T18:35:09.213Z,141.73
2022-11-30T18:37:37.383Z,147.40
2022-11-30T18:40:06.205Z,153.40
2022-11-30T18:42:34.600Z,156.17
2022-11-30T18:45:02.814Z,168.30
2022-11-30T18:47:30.967Z,165.53
2022-11-30T18:50:00.539Z,195.97
2022-11-30T18:52:28.692Z,183.33
2022-11-30T18:54:56.859Z,177.53
2022-11-30T18:57:25.152Z,200.80
2022-11-30T18:59:54.087Z,197.40
2022-11-30T19:02:22.649Z,218.33
2022-11-30T19:04:51.141Z,195.43
2022-11-30T19:07:20.881Z,227.93
2022-11-30T19:09:49.281Z,185.43
2022-11-30T19:12:17.640Z,231.83
2022-11-30T19:14:46.166Z,288.67
2022-11-30T19:17:14.743Z,340.13
2022-11-30T19:19:43.055Z,301.53
2022-11-30T19:22:11.204Z,281.33
2022-11-30T19:24:41.072Z,280.97
2022-11-30T19:27:09.401Z,301.67
2022-11-30T19:29:37.518Z,228.97
2022-11-30T19:32:06.660Z,326.00
2022-11-30T19:34:34.923Z,216.03
2022-11-30T19:37:03.096Z,327.07
2022-11-30T19:39:31.414Z,308.50
2022-11-30T19:42:01.450Z,222.10
2022-11-30T19:44:29.728Z,155.90
2022-11-30T19:46:58.061Z,171.73
2022-11-30T19:49:26.555Z,171.80
2022-11-30T19:51:54.713Z,189.37
2022-11-30T19:54:22.886Z,151.10
2022-11-30T19:56:51.266Z,217.33
2022-11-30T19:59:20.930Z,173.03
2022-11-30T20:01:49.292Z,166.97
2022-11-30T20:04:20.950Z,187.73
2022-11-30T20:06:49.139Z,149.23
2022-11-30T20:09:17.691Z,267.23
2022-11-30T20:11:46.016Z,215.37
2022-11-30T20:14:17.662Z,161.13
2022-11-30T20:16:47.686Z,195.57
2022-11-30T20:19:17.275Z,151.00
2022-11-30T20:21:45.951Z,196.47
2022-11-30T20:24:14.489Z,143.23
2022-11-30T20:26:44.126Z,213.20
2022-11-30T20:29:14.959Z,153.70
2022-11-30T20:31:47.608Z,208.93
2022-11-30T20:34:15.848Z,256.60
2022-11-30T20:36:45.229Z,228.33
2022-11-30T20:39:13.920Z,186.20
2022-11-30T20:41:42.428Z,158.13
2022-11-30T20:44:14.607Z,215.23
2022-11-30T20:46:43.256Z,179.00
2022-11-30T20:49:17.709Z,188.60
2022-11-30T20:51:47.153Z,123.07
2022-11-30T20:54:16.677Z,242.77
2022-11-30T20:56:46.835Z,158.97
2022-11-30T20:59:19.593Z,161.93
2022-11-30T21:01:48.849Z,196.13
2022-11-30T21:04:18.736Z,176.27
2022-11-30T21:06:47.127Z,159.23
2022-11-30T21:09:15.957Z,169.37
2022-11-30T21:11:44.938Z,160.77
2022-11-30T21:14:13.688Z,184.67
2022-11-30T21:16:42.448Z,178.00
2022-11-30T21:19:11.834Z,216.47
2022-11-30T21:21:41.474Z,166.07
2022-11-30T21:24:12.675Z,160.50
2022-11-30T21:26:43.129Z,159.37
2022-11-30T21:29:13.572Z,203.43
2022-11-30T21:31:41.983Z,144.10
2022-11-30T21:34:10.427Z,161.20
2022-11-30T21:36:38.909Z,136.00
2022-11-30T21:39:09.259Z,141.67
2022-11-30T21:41:39.688Z,169.93
2022-11-30T21:44:09.580Z,150.90
2022-11-30T21:46:37.840Z,143.20
2022-11-30T21:49:06.541Z,102.53
2022-11-30T21:51:34.982Z,118.73
2022-11-30T21:54:04.671Z,129.03
2022-11-30T21:56:36.365Z,170.63
2022-11-30T21:59:06.864Z,145.70
2022-11-30T22:01:37.741Z,110.03
2022-11-30T22:04:07.512Z,134.33
2022-11-30T22:06:37.519Z,176.47
2022-11-30T22:09:08.862Z,131.63
2022-11-30T22:11:40.075Z,231.33
2022-11-30T22:14:11.459Z,122.97
2022-11-30T22:16:40.028Z,219.73
2022-11-30T22:19:10.914Z,134.47
2022-11-30T22:21:39.080Z,193.87
2022-11-30T22:24:10.661Z,146.67
2022-11-30T22:26:41.814Z,139.03
2022-11-30T22:29:14.111Z,246.83
2022-11-30T22:31:44.542Z,149.73
2022-11-30T22:34:13.328Z,99.80
2022-11-30T22:36:43.425Z,128.30
2022-11-30T22:39:15.749Z,156.83
2022-11-30T22:41:51.258Z,194.30
2022-11-30T22:44:26.464Z,135.80
2022-11-30T22:46:54.915Z,138.70
2022-11-30T22:49:23.477Z,109.33
2022-11-30T22:51:51.934Z,134.80
2022-11-30T22:54:20.458Z,120.53
2022-11-30T22:56:49.982Z,202.97
2022-11-30T22:59:18.341Z,130.47
2022-11-30T23:01:48.035Z,122.67
2022-11-30T23:04:21.468Z,148.23
2022-11-30T23:06:50.979Z,250.00
2022-11-30T23:09:21.944Z,131.93
2022-11-30T23:11:52.228Z,123.60
2022-11-30T23:14:20.703Z,115.20
2022-11-30T23:16:49.275Z,105.43
2022-11-30T23:19:18.436Z,105.63
2022-11-30T23:21:46.772Z,89.57
2022-11-30T23:24:20.510Z,129.57
2022-11-30T23:26:51.148Z,98.60
2022-11-30T23:29:19.594Z,85.27
2022-11-30T23:31:49.248Z,102.93
2022-11-30T23:34:18.957Z,127.47
2022-11-30T23:36:47.219Z,125.40
2022-11-30T23:39:17.802Z,104.03
2022-11-30T23:41:45.950Z,90.40
2022-11-30T23:44:15.760Z,93.43
2022-11-30T23:46:44.443Z,109.23
2022-11-30T23:49:14.023Z,146.77
2022-11-30T23:51:42.593Z,161.67
2022-11-30T23:54:11.135Z,165.30
2022-11-30T23:56:39.396Z,114.37
2022-11-30T23:59:07.653Z,158.00
